Time;durP1;ratioP1;P1;durP2;ratioP2;P2;SDS_P1;SDS_P2;PMS_P1;PMS_P2;Temp;Humidity;BMP_temperature;BMP_pressure;BME280_temperature;BME280_humidity;BME280_pressure;Samples;Min_cycle;Max_cycle;Signal;HPM_P1;HPM_P2
2024/01/12 00:02:21;;;;;;;40.28;17.65;;;-1.20;63.60;;;;;;2276768;56;20948;-65
2024/01/12 00:04:47;;;;;;;32.80;15.88;;;-1.10;63.70;;;;;;2277499;55;21008;-65
2024/01/12 00:07:14;;;;;;;33.97;15.07;;;-1.20;63.70;;;;;;2276758;56;21016;-67
2024/01/12 00:09:42;;;;;;;34.30;14.98;;;-1.20;63.60;;;;;;2281034;55;20991;-66
2024/01/12 00:12:09;;;;;;;35.85;16.15;;;-1.20;63.60;;;;;;2512427;53;21423;-65
2024/01/12 00:14:36;;;;;;;36.65;16.05;;;-1.20;63.60;;;;;;2279194;54;20979;-64
2024/01/12 00:17:02;;;;;;;29.83;13.73;;;-1.20;63.80;;;;;;2276740;55;20992;-65
2024/01/12 00:19:29;;;;;;;31.33;14.25;;;-1.20;64.50;;;;;;2277040;55;20956;-65
2024/01/12 00:21:57;;;;;;;34.88;15.95;;;-1.20;65.20;;;;;;2277099;56;20952;-65
2024/01/12 00:24:23;;;;;;;33.40;15.52;;;-1.20;65.50;;;;;;2277256;56;21048;-67
2024/01/12 00:26:50;;;;;;;33.50;16.23;;;-1.10;65.70;;;;;;2277101;56;21307;-65
2024/01/12 00:29:16;;;;;;;36.40;16.02;;;-1.10;65.60;;;;;;2276385;56;20928;-66
2024/01/12 00:31:42;;;;;;;32.40;14.90;;;-1.10;65.40;;;;;;2278221;56;21047;-66
2024/01/12 00:34:09;;;;;;;31.48;14.65;;;-1.10;65.20;;;;;;2509494;54;21684;-65
2024/01/12 00:36:35;;;;;;;41.47;16.83;;;-1.10;65.00;;;;;;2509286;54;20921;-66
2024/01/12 00:39:03;;;;;;;31.85;14.98;;;-1.10;64.80;;;;;;2509528;54;20944;-65
2024/01/12 00:41:30;;;;;;;29.10;13.90;;;-1.10;64.70;;;;;;2509542;54;21095;-64
2024/01/12 00:43:56;;;;;;;29.95;13.73;;;-1.10;64.60;;;;;;2277243;55;21075;-66
2024/01/12 00:46:22;;;;;;;31.83;14.48;;;-1.10;64.40;;;;;;2277628;55;20991;-65
2024/01/12 00:48:50;;;;;;;27.33;12.60;;;-1.20;64.30;;;;;;2277250;56;21020;-66
2024/01/12 00:51:19;;;;;;;25.92;12.45;;;-1.20;64.20;;;;;;2508245;54;20964;-65
2024/01/12 00:53:45;;;;;;;32.03;14.30;;;-1.20;64.00;;;;;;2508728;54;20960;-67
2024/01/12 00:56:11;;;;;;;27.33;12.90;;;-1.20;64.00;;;;;;2276960;56;20963;-64
2024/01/12 00:58:39;;;;;;;29.92;13.38;;;-1.20;64.00;;;;;;2277204;56;20936;-65
2024/01/12 01:01:05;;;;;;;31.60;14.40;;;-1.20;64.00;;;;;;2277061;56;21004;-65
2024/01/12 01:03:32;;;;;;;32.78;13.95;;;-1.30;63.80;;;;;;2283400;55;20934;-65
2024/01/12 01:05:58;;;;;;;31.83;13.32;;;-1.20;63.90;;;;;;2278523;55;21507;-67
2024/01/12 01:08:24;;;;;;;36.53;14.23;;;-1.30;63.80;;;;;;2277219;55;20960;-66
2024/01/12 01:10:51;;;;;;;30.85;13.30;;;-1.30;63.70;;;;;;2509666;54;21072;-66
2024/01/12 01:13:17;;;;;;;30.25;13.27;;;-1.30;63.70;;;;;;2276852;56;20964;-66
2024/01/12 01:15:44;;;;;;;32.15;14.23;;;-1.30;63.70;;;;;;2509527;54;21016;-66
2024/01/12 01:18:11;;;;;;;29.25;13.13;;;-1.30;63.70;;;;;;2277013;55;20976;-65
2024/01/12 01:20:38;;;;;;;31.25;13.62;;;-1.30;63.60;;;;;;2277631;56;20956;-65
2024/01/12 01:23:20;;;;;;;27.05;13.40;;;-1.40;63.50;;;;;;2277822;55;21003;-66
2024/01/12 01:25:47;;;;;;;32.00;14.10;;;-1.40;63.40;;;;;;2506150;55;21024;-67
2024/01/12 01:28:13;;;;;;;29.95;13.57;;;-1.30;63.50;;;;;;2508356;55;20952;-66
2024/01/12 01:30:43;;;;;;;35.20;15.00;;;-1.40;63.40;;;;;;2276269;56;20997;-64
2024/01/12 01:33:09;;;;;;;32.30;14.55;;;-1.30;63.50;;;;;;2276714;56;20940;-66
2024/01/12 01:35:35;;;;;;;35.20;17.02;;;-1.40;63.40;;;;;;2511137;54;21021;-65
2024/01/12 01:38:03;;;;;;;38.03;16.25;;;-1.40;63.40;;;;;;2278394;54;20960;-65
2024/01/12 01:40:29;;;;;;;32.58;13.85;;;-1.40;63.40;;;;;;2276218;55;20928;-66
2024/01/12 01:42:55;;;;;;;33.90;14.90;;;-1.40;63.40;;;;;;2277667;55;21040;-65
2024/01/12 01:45:21;;;;;;;33.75;14.65;;;-1.50;63.20;;;;;;2509527;54;20920;-65
2024/01/12 01:47:48;;;;;;;37.25;16.42;;;-1.40;63.30;;;;;;2509535;54;20992;-64
2024/01/12 01:50:15;;;;;;;33.83;14.98;;;-1.40;63.30;;;;;;2277061;56;21087;-64
2024/01/12 01:52:42;;;;;;;28.58;12.95;;;-1.50;63.20;;;;;;2277561;55;20916;-66
2024/01/12 01:55:09;;;;;;;36.67;16.02;;;-1.50;63.10;;;;;;2276906;56;20928;-66
2024/01/12 01:57:35;;;;;;;33.55;14.90;;;-1.50;63.10;;;;;;2277560;56;21008;-66
2024/01/12 02:00:02;;;;;;;32.35;14.63;;;-1.40;63.20;;;;;;2277248;56;20956;-66
2024/01/12 02:02:28;;;;;;;30.50;14.43;;;-1.50;63.10;;;;;;2282502;55;20950;-66
2024/01/12 02:04:55;;;;;;;33.75;14.95;;;-1.50;63.10;;;;;;2277187;56;20940;-65
2024/01/12 02:07:21;;;;;;;32.20;14.57;;;-1.50;63.10;;;;;;2509239;54;20924;-64
2024/01/12 02:09:47;;;;;;;30.25;13.77;;;-1.50;63.20;;;;;;2281406;56;20970;-67
2024/01/12 02:12:14;;;;;;;30.17;14.80;;;-1.50;63.20;;;;;;2511993;54;21747;-66
2024/01/12 02:14:40;;;;;;;30.23;14.48;;;-1.50;63.10;;;;;;2508984;54;20944;-66
2024/01/12 02:17:08;;;;;;;28.38;13.43;;;-1.50;63.20;;;;;;2509035;55;21508;-66
2024/01/12 02:19:37;;;;;;;27.02;11.43;;;-1.50;63.20;;;;;;2510840;54;21030;-64
2024/01/12 02:22:04;;;;;;;29.52;12.05;;;-1.50;63.10;;;;;;2286418;54;21073;-65
2024/01/12 02:24:31;;;;;;;28.05;13.13;;;-1.60;63.00;;;;;;2508687;54;20916;-66
2024/01/12 02:26:57;;;;;;;31.17;13.45;;;-1.60;63.00;;;;;;2509809;54;20984;-66
2024/01/12 02:29:24;;;;;;;32.63;14.20;;;-1.50;63.10;;;;;;2277207;56;20965;-66
2024/01/12 02:31:50;;;;;;;32.08;14.27;;;-1.60;62.90;;;;;;2277407;56;20964;-65
2024/01/12 02:34:16;;;;;;;28.55;12.52;;;-1.50;63.10;;;;;;2509252;55;20964;-64
2024/01/12 02:36:43;;;;;;;27.92;12.75;;;-1.60;62.90;;;;;;2277051;56;20983;-66
2024/01/12 02:39:12;;;;;;;27.87;12.18;;;-1.60;62.90;;;;;;2277229;56;21107;-65
2024/01/12 02:41:38;;;;;;;26.25;11.45;;;-1.60;62.90;;;;;;2276784;55;20984;-67
2024/01/12 02:44:04;;;;;;;31.65;13.07;;;-1.70;62.70;;;;;;2508135;54;21004;-65
2024/01/12 02:46:31;;;;;;;30.55;13.82;;;-1.70;62.70;;;;;;2299046;55;21035;-65
2024/01/12 02:48:57;;;;;;;33.30;13.77;;;-1.70;62.70;;;;;;2282019;56;21023;-64
2024/01/12 02:51:24;;;;;;;25.85;11.40;;;-1.70;62.70;;;;;;2509262;54;21652;-67
2024/01/12 02:53:51;;;;;;;29.50;13.40;;;-1.70;62.60;;;;;;2509131;54;21015;-66
2024/01/12 02:56:17;;;;;;;32.55;14.32;;;-1.70;62.60;;;;;;2509558;54;20981;-66
2024/01/12 02:58:44;;;;;;;32.17;13.90;;;-1.70;62.60;;;;;;2276534;55;20912;-63
2024/01/12 03:01:19;;;;;;;30.95;14.30;;;-1.70;62.60;;;;;;2276944;56;20946;-65
2024/01/12 03:03:48;;;;;;;32.92;14.38;;;-1.70;62.60;;;;;;2509506;54;20908;-65
2024/01/12 03:06:14;;;;;;;30.52;14.02;;;-1.80;62.50;;;;;;2277055;55;21482;-66
2024/01/12 03:08:42;;;;;;;32.42;14.95;;;-1.80;62.50;;;;;;2509806;54;20968;-63
2024/01/12 03:11:09;;;;;;;29.98;13.90;;;-1.80;62.50;;;;;;2277190;56;20960;-65
2024/01/12 03:13:35;;;;;;;31.45;13.43;;;-1.80;62.50;;;;;;2508940;54;20925;-66
2024/01/12 03:16:01;;;;;;;31.42;14.80;;;-1.80;62.40;;;;;;2292214;54;21103;-66
2024/01/12 03:18:28;;;;;;;34.22;14.80;;;-1.80;62.50;;;;;;2286404;54;20940;-65
2024/01/12 03:20:54;;;;;;;33.85;14.57;;;-1.80;62.50;;;;;;2277231;56;21001;-64
2024/01/12 03:23:21;;;;;;;32.13;14.25;;;-1.80;62.50;;;;;;2278058;56;21426;-66
2024/01/12 03:25:49;;;;;;;28.77;12.98;;;-1.80;62.50;;;;;;2508810;54;20916;-66
2024/01/12 03:28:16;;;;;;;33.92;14.27;;;-1.90;62.40;;;;;;2509477;54;20976;-65
2024/01/12 03:30:42;;;;;;;32.63;14.55;;;-1.90;62.40;;;;;;2508759;54;20944;-64
2024/01/12 03:33:09;;;;;;;29.65;13.95;;;-1.90;62.30;;;;;;2284724;54;20945;-66
2024/01/12 03:35:35;;;;;;;27.62;14.20;;;-1.90;62.30;;;;;;2509022;55;21400;-64
2024/01/12 03:38:02;;;;;;;30.98;14.38;;;-1.90;62.30;;;;;;2277466;55;21000;-64
2024/01/12 03:40:29;;;;;;;34.50;14.50;;;-1.90;62.30;;;;;;2508623;54;21707;-65
2024/01/12 03:42:58;;;;;;;36.17;14.93;;;-1.90;62.30;;;;;;2510808;54;21448;-66
2024/01/12 03:45:25;;;;;;;31.00;15.18;;;-1.90;62.30;;;;;;2278016;56;20992;-64
2024/01/12 03:47:51;;;;;;;33.90;15.73;;;-1.90;62.30;;;;;;2511134;54;20986;-65
2024/01/12 03:50:17;;;;;;;35.80;14.68;;;-2.00;62.20;;;;;;2278945;55;22422;-67
2024/01/12 03:52:43;;;;;;;28.95;12.45;;;-2.00;62.20;;;;;;2277343;55;21457;-65
2024/01/12 03:55:11;;;;;;;31.02;13.85;;;-2.00;62.30;;;;;;2509757;54;20932;-66
2024/01/12 03:57:37;;;;;;;33.88;14.30;;;-2.00;62.30;;;;;;2277075;55;21823;-64
2024/01/12 04:00:05;;;;;;;29.25;12.85;;;-2.00;62.20;;;;;;2277659;56;20944;-66
2024/01/12 04:02:32;;;;;;;30.15;13.00;;;-2.00;62.30;;;;;;2509296;54;20936;-65
2024/01/12 04:04:59;;;;;;;29.52;13.18;;;-2.00;62.30;;;;;;2510482;54;20976;-64
2024/01/12 04:07:25;;;;;;;34.00;14.60;;;-2.00;62.20;;;;;;2510036;55;21723;-64
2024/01/12 04:09:53;;;;;;;27.90;14.07;;;-2.00;62.10;;;;;;2276861;56;20997;-65
2024/01/12 04:12:19;;;;;;;32.05;13.65;;;-2.10;62.00;;;;;;2277528;55;25025;-64
2024/01/12 04:14:45;;;;;;;28.33;12.50;;;-2.10;62.10;;;;;;2277327;56;21283;-63
2024/01/12 04:17:12;;;;;;;34.75;14.70;;;-1.90;62.20;;;;;;2509999;54;20952;-66
2024/01/12 04:19:38;;;;;;;35.20;15.57;;;-2.10;62.10;;;;;;2277010;55;20988;-66
2024/01/12 04:22:04;;;;;;;38.75;16.77;;;-2.10;62.10;;;;;;2283049;55;21798;-64
2024/01/12 04:24:31;;;;;;;38.80;17.10;;;-2.10;62.10;;;;;;2278406;54;20972;-65
2024/01/12 04:26:57;;;;;;;35.13;16.05;;;-2.10;62.10;;;;;;2277517;56;21047;-65
2024/01/12 04:29:25;;;;;;;34.53;15.82;;;-2.10;62.10;;;;;;2277350;56;21012;-64
2024/01/12 04:31:51;;;;;;;39.60;16.73;;;-2.10;62.00;;;;;;2509172;54;21387;-66
2024/01/12 04:34:20;;;;;;;38.33;16.50;;;-2.20;61.90;;;;;;2510083;54;20984;-65
2024/01/12 04:36:46;;;;;;;39.03;17.15;;;-2.20;61.90;;;;;;2509871;54;20995;-66
2024/01/12 04:39:13;;;;;;;33.50;16.02;;;-2.20;61.90;;;;;;2509081;54;21060;-66
2024/01/12 04:41:44;;;;;;;35.40;15.57;;;-2.20;61.90;;;;;;2508856;54;20913;-64
2024/01/12 04:44:11;;;;;;;37.38;15.82;;;-2.20;61.90;;;;;;2277935;55;21275;-65
2024/01/12 04:46:38;;;;;;;30.33;14.55;;;-2.20;61.90;;;;;;2276848;55;20996;-65
2024/01/12 04:49:04;;;;;;;33.92;15.40;;;-2.20;62.00;;;;;;2276701;55;20938;-65
2024/01/12 04:51:30;;;;;;;32.35;15.18;;;-2.20;62.00;;;;;;2276895;56;20969;-65
2024/01/12 04:53:58;;;;;;;30.60;13.10;;;-2.20;61.90;;;;;;2276662;55;20939;-66
2024/01/12 04:56:25;;;;;;;33.92;15.57;;;-2.30;61.90;;;;;;2513067;54;20961;-65
2024/01/12 04:58:51;;;;;;;34.38;15.70;;;-2.20;62.00;;;;;;2509090;55;20956;-64
2024/01/12 05:01:18;;;;;;;38.17;15.80;;;-2.20;62.00;;;;;;2277591;55;21027;-64
2024/01/12 05:03:44;;;;;;;29.85;13.80;;;-2.30;61.90;;;;;;2275368;55;20940;-64
2024/01/12 05:06:10;;;;;;;30.30;13.07;;;-2.30;61.90;;;;;;2510006;55;21013;-66
2024/01/12 05:08:37;;;;;;;33.10;14.48;;;-2.30;61.90;;;;;;2509108;54;20976;-65
2024/01/12 05:11:03;;;;;;;33.78;14.80;;;-2.30;61.80;;;;;;2277026;55;21023;-66
2024/01/12 05:13:30;;;;;;;39.22;17.27;;;-2.30;61.70;;;;;;2277089;56;20940;-64
2024/01/12 05:15:57;;;;;;;35.50;16.20;;;-2.30;61.70;;;;;;2276796;56;20942;-66
2024/01/12 05:18:25;;;;;;;35.85;15.80;;;-2.30;61.80;;;;;;2277398;55;20944;-65
2024/01/12 05:20:51;;;;;;;33.72;14.90;;;-2.40;61.70;;;;;;2282578;55;20962;-65
2024/01/12 05:23:19;;;;;;;31.77;13.52;;;-2.40;61.70;;;;;;2277258;56;20940;-65
2024/01/12 05:25:45;;;;;;;33.80;14.52;;;-2.40;61.70;;;;;;2276309;56;21449;-65
2024/01/12 05:28:12;;;;;;;33.22;15.13;;;-2.40;61.70;;;;;;2280843;55;21606;-65
2024/01/12 05:30:39;;;;;;;30.98;14.43;;;-2.40;61.70;;;;;;2511073;54;21312;-66
2024/01/12 05:33:06;;;;;;;35.92;15.25;;;-2.40;61.70;;;;;;2509398;55;21011;-65
2024/01/12 05:35:32;;;;;;;36.20;16.05;;;-2.40;61.70;;;;;;2276870;55;20970;-65
2024/01/12 05:37:58;;;;;;;31.55;13.82;;;-2.40;61.70;;;;;;2277955;55;26270;-65
2024/01/12 05:40:25;;;;;;;32.53;15.23;;;-2.40;61.70;;;;;;2277435;55;21060;-66
2024/01/12 05:42:51;;;;;;;39.30;16.50;;;-2.50;61.60;;;;;;2277185;55;20953;-65
2024/01/12 05:45:18;;;;;;;40.03;16.98;;;-2.40;62.00;;;;;;2282589;54;21022;-65
2024/01/12 05:47:44;;;;;;;37.28;16.45;;;-2.40;61.70;;;;;;2281705;54;20958;-64
2024/01/12 05:50:11;;;;;;;36.53;16.65;;;-2.40;61.70;;;;;;2515906;53;21749;-64
2024/01/12 05:52:37;;;;;;;39.17;17.45;;;-2.40;61.70;;;;;;2277209;56;21511;-66
2024/01/12 05:55:06;;;;;;;39.85;17.95;;;-2.40;61.70;;;;;;2276459;55;20976;-66
2024/01/12 05:57:33;;;;;;;38.35;15.93;;;-2.40;61.70;;;;;;2276964;55;21020;-64
2024/01/12 06:00:02;;;;;;;34.42;14.77;;;-2.50;61.70;;;;;;2276893;55;20988;-66
2024/01/12 06:02:28;;;;;;;34.30;15.80;;;-2.50;61.70;;;;;;2276799;55;21443;-63
2024/01/12 06:04:57;;;;;;;33.92;15.40;;;-2.50;61.70;;;;;;2276443;55;21024;-66
2024/01/12 06:07:23;;;;;;;35.42;16.05;;;-2.50;61.70;;;;;;2509274;54;20957;-65
2024/01/12 06:09:50;;;;;;;38.13;17.70;;;-2.50;61.70;;;;;;2276717;55;20984;-65
2024/01/12 06:12:16;;;;;;;38.45;16.67;;;-2.50;61.60;;;;;;2509983;55;21087;-64
2024/01/12 06:14:42;;;;;;;33.17;15.23;;;-2.50;61.60;;;;;;2276216;56;20980;-66
2024/01/12 06:17:09;;;;;;;34.88;15.85;;;-2.50;61.60;;;;;;2277836;55;21913;-65
2024/01/12 06:19:35;;;;;;;30.77;13.62;;;-2.50;61.60;;;;;;2507892;54;21004;-65
2024/01/12 06:22:04;;;;;;;32.83;14.75;;;-2.60;61.50;;;;;;2277845;56;20945;-65
2024/01/12 06:24:30;;;;;;;38.63;16.98;;;-2.50;61.50;;;;;;2282730;55;21089;-65
2024/01/12 06:26:58;;;;;;;36.42;15.73;;;-2.50;61.50;;;;;;2508372;54;21544;-65
2024/01/12 06:29:25;;;;;;;35.75;16.42;;;-2.60;61.40;;;;;;2276585;56;20996;-65
2024/01/12 06:31:51;;;;;;;33.42;14.13;;;-2.60;61.40;;;;;;2276040;56;21292;-66
2024/01/12 06:34:18;;;;;;;31.20;14.02;;;-2.60;61.40;;;;;;2277049;55;20925;-64
2024/01/12 06:36:47;;;;;;;35.75;15.38;;;-2.60;61.40;;;;;;2276543;55;20992;-66
2024/01/12 06:39:13;;;;;;;40.08;16.87;;;-2.60;61.30;;;;;;2511308;54;20990;-66
2024/01/12 06:41:43;;;;;;;35.55;16.45;;;-2.60;61.30;;;;;;2287289;54;21069;-65
2024/01/12 06:44:09;;;;;;;28.05;13.43;;;-2.70;61.30;;;;;;2277832;56;20976;-66
2024/01/12 06:46:43;;;;;;;34.63;15.65;;;-2.60;61.40;;;;;;2276195;56;21789;-66
2024/01/12 06:49:10;;;;;;;44.83;18.42;;;-2.70;61.30;;;;;;2509437;55;21480;-66
2024/01/12 06:51:36;;;;;;;43.90;18.08;;;-2.70;61.20;;;;;;2289316;55;21035;-66
2024/01/12 06:54:02;;;;;;;45.75;19.45;;;-2.70;61.20;;;;;;2510577;53;20973;-65
2024/01/12 06:56:29;;;;;;;46.00;18.70;;;-2.70;61.20;;;;;;2277409;56;20999;-65
2024/01/12 06:58:55;;;;;;;44.95;19.60;;;-2.60;61.30;;;;;;2509013;54;20964;-64
2024/01/12 07:01:21;;;;;;;38.90;19.27;;;-2.70;61.30;;;;;;2276177;56;20956;-65
2024/01/12 07:03:48;;;;;;;37.13;17.25;;;-2.70;61.30;;;;;;2274555;55;20933;-66
2024/01/12 07:06:14;;;;;;;33.47;16.73;;;-2.80;61.20;;;;;;2275739;56;21434;-65
2024/01/12 07:08:41;;;;;;;46.10;19.55;;;-2.70;61.30;;;;;;2275727;55;21000;-63
2024/01/12 07:11:12;;;;;;;40.63;19.60;;;-2.80;61.10;;;;;;2277519;55;21004;-65
2024/01/12 07:13:39;;;;;;;43.80;19.30;;;-2.70;61.30;;;;;;2276619;55;21769;-65
2024/01/12 07:16:05;;;;;;;45.65;20.10;;;-2.80;61.20;;;;;;2508576;54;21499;-65
2024/01/12 07:18:31;;;;;;;39.13;17.95;;;-2.80;61.30;;;;;;2276831;55;20992;-65
2024/01/12 07:21:02;;;;;;;38.63;18.48;;;-2.80;61.40;;;;;;2276565;56;20971;-66
2024/01/12 07:23:30;;;;;;;47.17;19.02;;;-2.80;61.40;;;;;;2276996;56;21820;-65
2024/01/12 07:25:58;;;;;;;47.85;20.37;;;-2.80;61.40;;;;;;2288016;54;21025;-65
2024/01/12 07:28:26;;;;;;;45.00;21.52;;;-2.80;61.50;;;;;;2285515;55;21472;-65
2024/01/12 07:30:53;;;;;;;37.70;17.73;;;-2.80;61.50;;;;;;2275789;55;20956;-66
2024/01/12 07:33:20;;;;;;;47.55;20.58;;;-2.80;61.60;;;;;;2276924;56;21809;-65
2024/01/12 07:35:47;;;;;;;41.95;19.75;;;-2.80;61.70;;;;;;2280664;55;20973;-65
2024/01/12 07:38:13;;;;;;;37.70;17.50;;;-2.70;61.80;;;;;;2280557;55;20957;-63
2024/01/12 07:40:40;;;;;;;36.42;16.77;;;-2.70;61.90;;;;;;2276147;55;21870;-65
2024/01/12 07:43:06;;;;;;;36.08;16.27;;;-2.70;61.90;;;;;;2276542;56;21043;-66
2024/01/12 07:45:32;;;;;;;45.33;18.42;;;-2.70;61.90;;;;;;2277245;55;21016;-66
2024/01/12 07:48:00;;;;;;;37.85;17.62;;;-2.70;61.90;;;;;;2282077;54;21042;-64
2024/01/12 07:50:26;;;;;;;39.67;18.40;;;-2.70;61.90;;;;;;2283528;55;21471;-66
2024/01/12 07:52:54;;;;;;;36.83;14.70;;;-2.70;62.00;;;;;;2276625;55;21855;-66
2024/01/12 07:55:20;;;;;;;39.30;17.98;;;-2.70;62.10;;;;;;2277475;55;21000;-65
2024/01/12 07:57:46;;;;;;;40.92;17.90;;;-2.60;62.20;;;;;;2276721;55;20956;-65
2024/01/12 08:00:14;;;;;;;43.10;19.75;;;-2.60;62.30;;;;;;2277499;56;21801;-66
2024/01/12 08:02:40;;;;;;;54.05;21.02;;;-2.60;62.40;;;;;;2283018;54;20970;-65
2024/01/12 08:05:07;;;;;;;42.08;19.60;;;-2.50;62.70;;;;;;2509255;54;21456;-67
2024/01/12 08:07:34;;;;;;;35.60;16.17;;;-2.50;62.70;;;;;;2277527;55;20920;-66
2024/01/12 08:10:01;;;;;;;36.00;15.35;;;-2.40;62.90;;;;;;2277180;55;21895;-66
2024/01/12 08:12:28;;;;;;;34.63;15.80;;;-2.40;63.00;;;;;;2286693;56;21008;-66
2024/01/12 08:14:54;;;;;;;40.28;17.75;;;-2.40;63.10;;;;;;2291043;55;20980;-65
2024/01/12 08:17:20;;;;;;;42.13;18.30;;;-2.30;63.20;;;;;;2277265;56;20940;-64
2024/01/12 08:19:47;;;;;;;35.72;16.95;;;-2.30;63.30;;;;;;2276755;56;20929;-65
2024/01/12 08:22:17;;;;;;;33.42;15.05;;;-2.20;63.50;;;;;;2281338;55;20987;-63
2024/01/12 08:24:43;;;;;;;34.70;15.02;;;-2.20;63.60;;;;;;2508677;54;20988;-64
2024/01/12 08:27:09;;;;;;;36.85;15.20;;;-2.10;63.70;;;;;;2277099;55;20976;-65
2024/01/12 08:29:37;;;;;;;34.70;14.95;;;-2.00;63.80;;;;;;2509313;54;20964;-65
2024/01/12 08:32:03;;;;;;;35.38;15.18;;;-2.00;63.90;;;;;;2280155;55;21433;-66
2024/01/12 08:34:31;;;;;;;38.30;16.00;;;-1.90;64.00;;;;;;2287418;55;21024;-64
2024/01/12 08:36:58;;;;;;;38.33;17.50;;;-1.90;64.00;;;;;;2287812;54;21526;-64
2024/01/12 08:39:24;;;;;;;38.22;18.40;;;-1.80;64.20;;;;;;2283234;55;20961;-65
2024/01/12 08:41:51;;;;;;;46.92;19.90;;;-1.70;64.40;;;;;;2277071;54;20916;-65
2024/01/12 08:44:18;;;;;;;38.03;18.83;;;-1.60;64.50;;;;;;2277281;55;20964;-66
2024/01/12 08:46:45;;;;;;;37.83;16.50;;;-1.50;64.80;;;;;;2508585;54;21004;-65
2024/01/12 08:49:12;;;;;;;31.95;15.43;;;-1.50;64.90;;;;;;2530246;53;20938;-64
2024/01/12 08:51:38;;;;;;;35.63;16.42;;;-1.40;65.00;;;;;;2281378;55;20985;-66
2024/01/12 08:54:04;;;;;;;33.92;14.98;;;-1.30;65.10;;;;;;2278836;54;20985;-66
2024/01/12 08:56:31;;;;;;;33.13;16.10;;;-1.30;65.10;;;;;;2295941;55;21027;-65
2024/01/12 08:58:57;;;;;;;36.35;15.15;;;-1.20;65.20;;;;;;2276081;55;21017;-65
2024/01/12 09:01:24;;;;;;;31.37;14.38;;;-1.10;65.30;;;;;;2508669;55;20981;-65
2024/01/12 09:03:50;;;;;;;31.45;14.27;;;-1.00;65.40;;;;;;2276570;55;21015;-65
2024/01/12 09:06:17;;;;;;;30.73;13.95;;;-0.90;65.50;;;;;;2508962;55;21485;-65
2024/01/12 09:08:43;;;;;;;33.60;15.07;;;-0.80;65.50;;;;;;2276856;55;20987;-66
2024/01/12 09:11:11;;;;;;;32.08;13.85;;;-0.70;65.60;;;;;;2508319;54;21023;-64
2024/01/12 09:13:38;;;;;;;31.27;15.02;;;-0.70;65.60;;;;;;2277014;55;21028;-65
2024/01/12 09:16:07;;;;;;;30.73;13.62;;;-0.60;65.70;;;;;;2276877;55;21000;-66
2024/01/12 09:18:33;;;;;;;31.92;13.82;;;-0.50;65.80;;;;;;2277251;55;20991;-66
2024/01/12 09:21:00;;;;;;;32.53;14.68;;;-0.40;66.00;;;;;;2280527;54;21896;-64
2024/01/12 09:23:26;;;;;;;34.78;15.93;;;-0.30;66.10;;;;;;2511868;53;21020;-66
2024/01/12 09:25:54;;;;;;;29.77;14.45;;;-0.30;66.20;;;;;;2508545;55;20944;-66
2024/01/12 09:28:21;;;;;;;37.25;16.00;;;-0.20;66.40;;;;;;2509291;54;21047;-65
2024/01/12 09:30:49;;;;;;;37.00;16.60;;;-0.10;66.40;;;;;;2509199;54;20936;-66
2024/01/12 09:33:15;;;;;;;32.85;15.30;;;0.00;66.50;;;;;;2277054;56;21104;-66
2024/01/12 09:35:41;;;;;;;30.10;14.05;;;0.10;66.60;;;;;;2277146;56;20924;-65
2024/01/12 09:38:08;;;;;;;31.12;13.82;;;0.20;66.70;;;;;;2277369;55;21047;-65
2024/01/12 09:40:34;;;;;;;26.77;13.13;;;0.30;66.80;;;;;;2277800;56;20952;-64
2024/01/12 09:43:01;;;;;;;30.58;14.02;;;0.40;66.80;;;;;;2276674;56;21056;-66
2024/01/12 09:45:27;;;;;;;35.05;14.55;;;0.50;66.80;;;;;;2509579;54;21280;-66
2024/01/12 09:47:54;;;;;;;36.28;16.20;;;0.60;67.50;;;;;;2511898;53;20984;-66
2024/01/12 09:50:24;;;;;;;35.53;16.62;;;0.60;66.60;;;;;;2509832;54;20928;-67
2024/01/12 09:52:50;;;;;;;29.10;14.05;;;0.70;66.60;;;;;;2508162;54;21670;-68
2024/01/12 09:55:17;;;;;;;31.08;15.75;;;0.80;66.60;;;;;;2508402;55;20944;-66
2024/01/12 09:57:46;;;;;;;33.80;14.75;;;0.90;66.70;;;;;;2277159;56;21015;-66
2024/01/12 10:00:16;;;;;;;33.95;14.98;;;0.90;66.40;;;;;;2509025;54;20976;-65
2024/01/12 10:02:42;;;;;;;29.45;13.75;;;1.00;66.40;;;;;;2508823;54;20964;-66
2024/01/12 10:05:09;;;;;;;36.15;15.13;;;1.10;66.30;;;;;;2509408;55;21090;-66
2024/01/12 10:07:37;;;;;;;29.10;15.02;;;1.10;66.20;;;;;;2296332;55;20955;-66
2024/01/12 10:10:08;;;;;;;31.30;15.10;;;1.10;66.10;;;;;;2276189;55;20939;-65
2024/01/12 10:12:34;;;;;;;28.45;14.38;;;1.20;66.10;;;;;;2277435;56;20963;-68
2024/01/12 10:15:05;;;;;;;31.15;15.07;;;1.20;66.00;;;;;;2508474;55;21007;-66
2024/01/12 10:17:31;;;;;;;35.88;16.48;;;1.20;65.90;;;;;;2277003;55;21039;-66
2024/01/12 10:19:58;;;;;;;37.15;17.00;;;1.30;66.10;;;;;;2280898;54;21470;-67
2024/01/12 10:22:25;;;;;;;34.63;16.40;;;1.30;66.10;;;;;;2511418;54;20964;-66
2024/01/12 10:25:04;;;;;;;35.92;17.37;;;1.40;66.20;;;;;;2276543;56;21833;-65
2024/01/12 10:27:31;;;;;;;29.87;14.95;;;1.40;66.10;;;;;;2509097;54;21545;-67
2024/01/12 10:30:00;;;;;;;32.28;15.55;;;1.50;66.20;;;;;;2280682;55;21612;-67
2024/01/12 10:32:27;;;;;;;32.40;15.98;;;1.50;66.10;;;;;;2278981;55;21240;-68
2024/01/12 10:34:54;;;;;;;35.42;16.92;;;1.60;66.20;;;;;;2277493;55;21292;-66
2024/01/12 10:37:21;;;;;;;35.88;17.02;;;1.60;66.10;;;;;;2282008;55;20985;-66
2024/01/12 10:39:50;;;;;;;36.08;17.55;;;1.60;66.20;;;;;;2277854;55;20994;-65
2024/01/12 10:42:20;;;;;;;37.20;18.23;;;1.70;66.30;;;;;;2276504;56;20975;-67
2024/01/12 10:44:46;;;;;;;38.30;18.60;;;1.80;66.30;;;;;;2276792;55;21503;-65
2024/01/12 10:47:20;;;;;;;37.35;19.48;;;1.80;66.30;;;;;;2509307;55;20949;-66
2024/01/12 10:50:49;;;;;;;34.60;17.52;;;1.90;66.40;;;;;;2511611;54;21481;-67
2024/01/12 10:53:23;;;;;;;33.10;15.85;;;1.90;66.30;;;;;;2276748;55;21036;-66
2024/01/12 10:55:58;;;;;;;37.75;17.08;;;2.00;66.30;;;;;;2276309;56;20977;-67
2024/01/12 10:58:24;;;;;;;38.88;18.62;;;2.00;66.20;;;;;;2262468;56;21051;-66
2024/01/12 11:00:50;;;;;;;39.28;19.23;;;2.10;66.20;;;;;;2276398;56;20917;-67
2024/01/12 11:03:17;;;;;;;38.90;18.00;;;2.10;66.00;;;;;;2276579;55;20976;-66
2024/01/12 11:05:46;;;;;;;41.95;20.55;;;2.10;65.90;;;;;;2508301;55;20952;-66
2024/01/12 11:08:13;;;;;;;41.28;19.70;;;2.10;65.80;;;;;;2276759;55;21004;-65
2024/01/12 11:10:45;;;;;;;37.53;18.42;;;2.10;65.60;;;;;;2276791;55;20972;-67
2024/01/12 11:13:13;;;;;;;34.83;16.42;;;2.10;65.60;;;;;;2280748;55;21308;-67
2024/01/12 11:15:40;;;;;;;33.38;16.05;;;2.20;65.60;;;;;;2508627;54;20952;-67
2024/01/12 11:18:07;;;;;;;37.92;18.35;;;2.20;65.60;;;;;;2508630;54;20956;-67
2024/01/12 11:20:38;;;;;;;34.78;17.40;;;2.20;65.60;;;;;;2281567;55;21408;-67
2024/01/12 11:23:05;;;;;;;40.85;17.25;;;2.20;65.60;;;;;;2509985;54;21355;-65
2024/01/12 11:25:31;;;;;;;37.53;18.77;;;2.20;65.60;;;;;;2276784;55;21000;-66
2024/01/12 11:27:58;;;;;;;43.53;20.83;;;2.30;65.60;;;;;;2276959;56;20988;-65
2024/01/12 11:30:25;;;;;;;47.17;20.95;;;2.30;65.60;;;;;;2280655;55;21022;-66
2024/01/12 11:33:15;;;;;;;37.50;18.08;;;2.30;65.60;;;;;;2510805;54;20996;-66
2024/01/12 11:35:45;;;;;;;36.40;18.00;;;2.40;65.60;;;;;;2282513;55;20950;-65
2024/01/12 11:38:11;;;;;;;38.47;17.95;;;2.40;65.80;;;;;;2281938;55;21021;-68
2024/01/12 11:40:46;;;;;;;40.58;19.08;;;2.40;65.90;;;;;;2511271;54;20948;-66
2024/01/12 11:43:17;;;;;;;33.28;16.55;;;2.40;65.90;;;;;;2512141;54;20958;-66
2024/01/12 11:45:44;;;;;;;36.30;17.52;;;2.50;66.00;;;;;;2509349;55;21024;-67
2024/01/12 11:48:16;;;;;;;32.30;16.92;;;2.50;66.00;;;;;;2276781;55;20984;-67
2024/01/12 11:50:42;;;;;;;31.40;15.00;;;2.50;65.70;;;;;;2276987;56;20987;-65
2024/01/12 11:53:09;;;;;;;38.65;17.92;;;2.60;65.80;;;;;;2276437;55;20944;-67
2024/01/12 11:55:38;;;;;;;37.00;17.67;;;2.60;65.70;;;;;;2277387;55;21011;-65
2024/01/12 11:58:05;;;;;;;35.63;17.20;;;2.60;65.70;;;;;;2277345;55;20917;-67
2024/01/12 12:00:33;;;;;;;35.33;18.27;;;2.60;65.60;;;;;;2277751;56;20944;-67
2024/01/12 12:03:00;;;;;;;33.97;17.15;;;2.60;65.60;;;;;;2509154;54;20905;-66
2024/01/12 12:05:28;;;;;;;31.48;16.48;;;2.70;65.80;;;;;;2282816;54;20946;-69
2024/01/12 12:07:54;;;;;;;40.38;18.80;;;2.70;65.80;;;;;;2283162;54;20989;-66
2024/01/12 12:10:22;;;;;;;38.35;19.37;;;2.70;65.80;;;;;;2281791;55;21012;-66
2024/01/12 12:12:50;;;;;;;38.55;19.60;;;2.60;66.40;;;;;;2512367;54;21025;-67
2024/01/12 12:15:16;;;;;;;38.40;18.70;;;2.70;65.60;;;;;;2511043;53;20974;-67
2024/01/12 12:17:46;;;;;;;39.92;19.15;;;2.70;65.60;;;;;;2283657;54;21837;-67
2024/01/12 12:20:12;;;;;;;36.65;18.77;;;2.80;65.60;;;;;;2278957;54;20960;-66
2024/01/12 12:22:45;;;;;;;42.40;19.58;;;2.80;65.50;;;;;;2277012;55;21845;-68
2024/01/12 12:25:15;;;;;;;40.95;19.45;;;2.80;65.50;;;;;;2276679;55;21000;-66
2024/01/12 12:27:43;;;;;;;39.60;19.65;;;2.80;65.30;;;;;;2508999;54;20968;-66
2024/01/12 12:30:11;;;;;;;38.53;18.52;;;2.80;65.30;;;;;;2276905;55;20976;-67